sensor_id;sensor_type;location;lat;lon;timestamp;P1;durP1;ratioP1;P2;durP2;ratioP2
55146;SDS011;41039;49.830;23.988;2022-08-01T00:02:02;2.50;;;1.70;;
55146;SDS011;41039;49.830;23.988;2022-08-01T00:04:27;2.30;;;1.50;;
55146;SDS011;41039;49.830;23.988;2022-08-01T00:06:52;1.90;;;1.37;;
55146;SDS011;41039;49.830;23.988;2022-08-01T00:09:18;3.47;;;1.93;;
55146;SDS011;41039;49.830;23.988;2022-08-01T00:11:43;3.00;;;1.70;;
55146;SDS011;41039;49.830;23.988;2022-08-01T00:14:08;2.93;;;1.80;;
55146;SDS011;41039;49.830;23.988;2022-08-01T00:16:36;3.10;;;1.85;;
55146;SDS011;41039;49.830;23.988;2022-08-01T00:19:02;2.85;;;2.03;;
55146;SDS011;41039;49.830;23.988;2022-08-01T00:21:27;3.85;;;1.60;;
55146;SDS011;41039;49.830;23.988;2022-08-01T00:23:52;2.67;;;1.70;;
55146;SDS011;41039;49.830;23.988;2022-08-01T00:26:18;4.13;;;2.97;;
55146;SDS011;41039;49.830;23.988;2022-08-01T00:28:43;4.05;;;3.33;;
55146;SDS011;41039;49.830;23.988;2022-08-01T00:31:08;5.07;;;2.90;;
55146;SDS011;41039;49.830;23.988;2022-08-01T00:33:33;3.78;;;1.95;;
55146;SDS011;41039;49.830;23.988;2022-08-01T00:35:58;3.03;;;2.15;;
55146;SDS011;41039;49.830;23.988;2022-08-01T00:38:24;4.00;;;2.03;;
55146;SDS011;41039;49.830;23.988;2022-08-01T00:40:49;2.92;;;1.92;;
55146;SDS011;41039;49.830;23.988;2022-08-01T00:43:14;3.22;;;1.75;;
55146;SDS011;41039;49.830;23.988;2022-08-01T00:45:40;3.33;;;1.95;;
55146;SDS011;41039;49.830;23.988;2022-08-01T00:48:05;3.00;;;2.03;;
55146;SDS011;41039;49.830;23.988;2022-08-01T00:50:31;4.60;;;2.55;;
55146;SDS011;41039;49.830;23.988;2022-08-01T00:52:56;2.95;;;1.95;;
55146;SDS011;41039;49.830;23.988;2022-08-01T00:55:22;3.95;;;1.90;;
55146;SDS011;41039;49.830;23.988;2022-08-01T00:57:48;3.25;;;2.22;;
55146;SDS011;41039;49.830;23.988;2022-08-01T01:00:14;3.35;;;2.03;;
55146;SDS011;41039;49.830;23.988;2022-08-01T01:02:39;2.83;;;2.08;;
55146;SDS011;41039;49.830;23.988;2022-08-01T01:05:04;3.70;;;1.80;;
55146;SDS011;41039;49.830;23.988;2022-08-01T01:07:32;4.18;;;2.38;;
55146;SDS011;41039;49.830;23.988;2022-08-01T01:10:15;3.53;;;2.20;;
55146;SDS011;41039;49.830;23.988;2022-08-01T06:32:56;3.08;;;1.50;;
55146;SDS011;41039;49.830;23.988;2022-08-01T06:35:23;3.90;;;1.38;;
55146;SDS011;41039;49.830;23.988;2022-08-01T06:37:48;2.47;;;1.50;;
55146;SDS011;41039;49.830;23.988;2022-08-01T06:40:14;4.80;;;2.38;;
55146;SDS011;41039;49.830;23.988;2022-08-01T06:42:39;4.80;;;1.77;;
55146;SDS011;41039;49.830;23.988;2022-08-01T06:45:05;3.40;;;1.83;;
55146;SDS011;41039;49.830;23.988;2022-08-01T06:47:31;4.65;;;2.30;;
55146;SDS011;41039;49.830;23.988;2022-08-01T06:49:56;2.20;;;1.30;;
55146;SDS011;41039;49.830;23.988;2022-08-01T06:52:21;3.55;;;1.50;;
55146;SDS011;41039;49.830;23.988;2022-08-01T06:54:46;3.83;;;2.00;;
55146;SDS011;41039;49.830;23.988;2022-08-01T06:57:12;3.83;;;1.63;;
55146;SDS011;41039;49.830;23.988;2022-08-01T06:59:37;2.63;;;1.83;;
55146;SDS011;41039;49.830;23.988;2022-08-01T07:02:02;6.10;;;2.00;;
55146;SDS011;41039;49.830;23.988;2022-08-01T07:04:27;6.38;;;1.98;;
55146;SDS011;41039;49.830;23.988;2022-08-01T07:06:55;3.45;;;1.65;;
55146;SDS011;41039;49.830;23.988;2022-08-01T07:09:20;3.42;;;1.70;;
55146;SDS011;41039;49.830;23.988;2022-08-01T07:11:45;4.22;;;1.63;;
55146;SDS011;41039;49.830;23.988;2022-08-01T07:14:11;5.07;;;1.73;;
55146;SDS011;41039;49.830;23.988;2022-08-01T07:16:36;2.22;;;1.40;;
55146;SDS011;41039;49.830;23.988;2022-08-01T07:19:01;3.47;;;2.03;;
55146;SDS011;41039;49.830;23.988;2022-08-01T07:21:27;4.38;;;2.20;;
55146;SDS011;41039;49.830;23.988;2022-08-01T07:23:52;6.15;;;2.50;;
55146;SDS011;41039;49.830;23.988;2022-08-01T07:26:17;6.50;;;2.70;;
55146;SDS011;41039;49.830;23.988;2022-08-01T07:28:42;6.20;;;2.80;;
55146;SDS011;41039;49.830;23.988;2022-08-01T07:31:08;6.97;;;2.58;;
55146;SDS011;41039;49.830;23.988;2022-08-01T07:33:33;6.68;;;2.53;;
55146;SDS011;41039;49.830;23.988;2022-08-01T07:35:58;6.50;;;3.00;;
55146;SDS011;41039;49.830;23.988;2022-08-01T07:38:23;8.40;;;2.83;;
55146;SDS011;41039;49.830;23.988;2022-08-01T07:40:49;6.05;;;2.50;;
55146;SDS011;41039;49.830;23.988;2022-08-01T07:43:14;8.90;;;3.08;;
55146;SDS011;41039;49.830;23.988;2022-08-01T07:45:40;8.52;;;2.80;;
55146;SDS011;41039;49.830;23.988;2022-08-01T07:48:05;4.53;;;2.40;;
55146;SDS011;41039;49.830;23.988;2022-08-01T07:50:31;7.88;;;2.72;;
55146;SDS011;41039;49.830;23.988;2022-08-01T07:52:56;4.95;;;2.28;;
55146;SDS011;41039;49.830;23.988;2022-08-01T07:55:22;8.20;;;2.55;;
55146;SDS011;41039;49.830;23.988;2022-08-01T07:57:47;8.93;;;3.38;;
55146;SDS011;41039;49.830;23.988;2022-08-01T08:00:12;8.20;;;3.38;;
55146;SDS011;41039;49.830;23.988;2022-08-01T08:02:38;8.32;;;3.35;;
55146;SDS011;41039;49.830;23.988;2022-08-01T08:05:03;8.90;;;2.88;;
55146;SDS011;41039;49.830;23.988;2022-08-01T08:07:29;7.05;;;2.97;;
55146;SDS011;41039;49.830;23.988;2022-08-01T08:09:55;9.23;;;3.30;;
55146;SDS011;41039;49.830;23.988;2022-08-01T08:12:20;4.47;;;3.05;;
55146;SDS011;41039;49.830;23.988;2022-08-01T08:14:45;5.43;;;3.72;;
55146;SDS011;41039;49.830;23.988;2022-08-01T08:17:10;2.27;;;1.60;;
55146;SDS011;41039;49.830;23.988;2022-08-01T08:19:36;3.33;;;1.97;;
55146;SDS011;41039;49.830;23.988;2022-08-01T08:22:03;2.65;;;1.42;;
55146;SDS011;41039;49.830;23.988;2022-08-01T08:24:29;2.85;;;1.25;;
55146;SDS011;41039;49.830;23.988;2022-08-01T08:26:55;4.93;;;1.38;;
55146;SDS011;41039;49.830;23.988;2022-08-01T08:29:20;1.70;;;1.00;;
55146;SDS011;41039;49.830;23.988;2022-08-01T08:31:46;3.22;;;1.25;;
55146;SDS011;41039;49.830;23.988;2022-08-01T08:34:12;3.40;;;1.75;;
55146;SDS011;41039;49.830;23.988;2022-08-01T08:36:37;4.07;;;1.70;;
55146;SDS011;41039;49.830;23.988;2022-08-01T08:39:03;6.82;;;1.20;;
55146;SDS011;41039;49.830;23.988;2022-08-01T08:41:29;1.98;;;1.35;;
55146;SDS011;41039;49.830;23.988;2022-08-01T08:43:55;6.47;;;1.73;;
55146;SDS011;41039;49.830;23.988;2022-08-01T08:46:22;2.58;;;1.30;;
55146;SDS011;41039;49.830;23.988;2022-08-01T08:48:48;2.92;;;1.30;;
55146;SDS011;41039;49.830;23.988;2022-08-01T08:51:13;4.53;;;1.48;;
55146;SDS011;41039;49.830;23.988;2022-08-01T08:53:40;4.95;;;1.40;;
55146;SDS011;41039;49.830;23.988;2022-08-01T08:56:08;7.28;;;2.17;;
55146;SDS011;41039;49.830;23.988;2022-08-01T08:58:34;3.72;;;1.33;;
55146;SDS011;41039;49.830;23.988;2022-08-01T09:01:03;4.55;;;1.73;;
55146;SDS011;41039;49.830;23.988;2022-08-01T09:03:29;1.92;;;1.20;;
55146;SDS011;41039;49.830;23.988;2022-08-01T09:05:54;3.13;;;1.40;;
55146;SDS011;41039;49.830;23.988;2022-08-01T09:08:20;1.88;;;1.13;;
55146;SDS011;41039;49.830;23.988;2022-08-01T09:10:45;3.03;;;1.17;;
55146;SDS011;41039;49.830;23.988;2022-08-01T09:13:11;2.03;;;1.20;;
55146;SDS011;41039;49.830;23.988;2022-08-01T09:15:48;2.95;;;1.27;;
55146;SDS011;41039;49.830;23.988;2022-08-01T09:18:48;4.00;;;1.70;;
55146;SDS011;41039;49.830;23.988;2022-08-01T09:23:48;1.80;;;1.20;;
55146;SDS011;41039;49.830;23.988;2022-08-01T09:29:17;3.75;;;1.80;;
55146;SDS011;41039;49.830;23.988;2022-08-01T09:34:08;2.92;;;1.88;;
55146;SDS011;41039;49.830;23.988;2022-08-01T09:36:47;5.78;;;2.20;;
55146;SDS011;41039;49.830;23.988;2022-08-01T09:39:16;3.30;;;1.75;;
55146;SDS011;41039;49.830;23.988;2022-08-01T09:41:42;2.58;;;1.58;;
55146;SDS011;41039;49.830;23.988;2022-08-01T09:44:07;2.67;;;1.63;;
55146;SDS011;41039;49.830;23.988;2022-08-01T09:46:32;4.03;;;1.60;;
55146;SDS011;41039;49.830;23.988;2022-08-01T09:49:05;2.25;;;1.13;;
55146;SDS011;41039;49.830;23.988;2022-08-01T09:51:37;2.42;;;1.20;;
55146;SDS011;41039;49.830;23.988;2022-08-01T09:54:04;2.50;;;1.60;;
55146;SDS011;41039;49.830;23.988;2022-08-01T09:56:39;3.08;;;2.15;;
55146;SDS011;41039;49.830;23.988;2022-08-01T09:59:04;4.40;;;2.22;;
55146;SDS011;41039;49.830;23.988;2022-08-01T10:01:41;6.50;;;3.00;;
55146;SDS011;41039;49.830;23.988;2022-08-01T10:04:14;6.60;;;3.40;;
55146;SDS011;41039;49.830;23.988;2022-08-01T10:06:40;6.78;;;3.17;;
55146;SDS011;41039;49.830;23.988;2022-08-01T10:09:08;6.65;;;4.32;;
55146;SDS011;41039;49.830;23.988;2022-08-01T10:11:33;5.15;;;4.07;;
55146;SDS011;41039;49.830;23.988;2022-08-01T10:14:01;7.70;;;5.35;;
55146;SDS011;41039;49.830;23.988;2022-08-01T10:16:27;6.78;;;4.80;;
55146;SDS011;41039;49.830;23.988;2022-08-01T10:18:53;6.47;;;5.10;;
55146;SDS011;41039;49.830;23.988;2022-08-01T10:21:19;8.38;;;5.18;;
55146;SDS011;41039;49.830;23.988;2022-08-01T10:23:44;6.85;;;5.72;;
55146;SDS011;41039;49.830;23.988;2022-08-01T10:26:10;9.05;;;6.15;;
55146;SDS011;41039;49.830;23.988;2022-08-01T10:28:37;7.85;;;6.22;;
55146;SDS011;41039;49.830;23.988;2022-08-01T10:31:03;8.52;;;6.53;;
55146;SDS011;41039;49.830;23.988;2022-08-01T10:33:31;7.90;;;5.40;;
55146;SDS011;41039;49.830;23.988;2022-08-01T10:35:57;7.13;;;5.85;;
55146;SDS011;41039;49.830;23.988;2022-08-01T10:38:22;10.05;;;6.40;;
55146;SDS011;41039;49.830;23.988;2022-08-01T10:40:48;6.93;;;5.75;;
55146;SDS011;41039;49.830;23.988;2022-08-01T10:43:14;7.63;;;6.30;;
55146;SDS011;41039;49.830;23.988;2022-08-01T10:45:41;6.78;;;5.85;;
55146;SDS011;41039;49.830;23.988;2022-08-01T10:50:43;7.97;;;5.65;;
55146;SDS011;41039;49.830;23.988;2022-08-01T11:00:47;9.25;;;6.10;;
55146;SDS011;41039;49.830;23.988;2022-08-01T11:03:12;6.90;;;5.57;;
55146;SDS011;41039;49.830;23.988;2022-08-01T11:05:37;7.97;;;6.00;;
55146;SDS011;41039;49.830;23.988;2022-08-01T11:08:06;8.57;;;6.10;;
55146;SDS011;41039;49.830;23.988;2022-08-01T11:10:38;7.53;;;5.38;;
55146;SDS011;41039;49.830;23.988;2022-08-01T11:13:04;6.70;;;5.05;;
55146;SDS011;41039;49.830;23.988;2022-08-01T11:15:32;6.65;;;5.03;;
55146;SDS011;41039;49.830;23.988;2022-08-01T11:17:58;6.03;;;4.65;;
55146;SDS011;41039;49.830;23.988;2022-08-01T11:20:25;6.72;;;4.78;;
55146;SDS011;41039;49.830;23.988;2022-08-01T11:30:41;5.97;;;4.28;;
55146;SDS011;41039;49.830;23.988;2022-08-01T11:33:06;5.05;;;4.50;;
55146;SDS011;41039;49.830;23.988;2022-08-01T11:35:31;7.10;;;4.13;;
55146;SDS011;41039;49.830;23.988;2022-08-01T11:37:57;4.03;;;3.42;;
55146;SDS011;41039;49.830;23.988;2022-08-01T11:40:42;5.30;;;3.78;;
55146;SDS011;41039;49.830;23.988;2022-08-01T11:45:55;4.00;;;2.83;;
55146;SDS011;41039;49.830;23.988;2022-08-01T11:48:21;4.30;;;3.15;;
55146;SDS011;41039;49.830;23.988;2022-08-01T11:50:47;6.88;;;3.40;;
55146;SDS011;41039;49.830;23.988;2022-08-01T11:53:12;3.65;;;2.58;;
55146;SDS011;41039;49.830;23.988;2022-08-01T11:55:45;3.40;;;2.47;;
55146;SDS011;41039;49.830;23.988;2022-08-01T11:58:12;3.42;;;2.40;;
55146;SDS011;41039;49.830;23.988;2022-08-01T12:00:37;3.90;;;2.40;;
55146;SDS011;41039;49.830;23.988;2022-08-01T12:03:03;3.83;;;2.47;;
55146;SDS011;41039;49.830;23.988;2022-08-01T12:05:29;4.30;;;2.75;;
55146;SDS011;41039;49.830;23.988;2022-08-01T12:07:56;4.72;;;2.72;;
55146;SDS011;41039;49.830;23.988;2022-08-01T12:10:23;6.15;;;3.67;;
55146;SDS011;41039;49.830;23.988;2022-08-01T12:12:53;4.22;;;3.28;;
55146;SDS011;41039;49.830;23.988;2022-08-01T12:15:19;5.88;;;3.30;;
55146;SDS011;41039;49.830;23.988;2022-08-01T12:17:48;5.25;;;4.00;;
55146;SDS011;41039;49.830;23.988;2022-08-01T12:20:16;12.85;;;4.30;;
55146;SDS011;41039;49.830;23.988;2022-08-01T12:22:44;5.07;;;3.83;;
55146;SDS011;41039;49.830;23.988;2022-08-01T12:25:13;5.15;;;3.35;;
55146;SDS011;41039;49.830;23.988;2022-08-01T12:27:38;5.18;;;3.58;;
55146;SDS011;41039;49.830;23.988;2022-08-01T12:30:05;6.55;;;3.70;;
55146;SDS011;41039;49.830;23.988;2022-08-01T12:32:32;5.45;;;3.67;;
55146;SDS011;41039;49.830;23.988;2022-08-01T12:35:02;5.68;;;4.30;;
55146;SDS011;41039;49.830;23.988;2022-08-01T12:37:27;5.75;;;4.53;;
55146;SDS011;41039;49.830;23.988;2022-08-01T12:39:53;7.28;;;4.25;;
55146;SDS011;41039;49.830;23.988;2022-08-01T12:42:18;7.82;;;5.15;;
55146;SDS011;41039;49.830;23.988;2022-08-01T12:44:44;7.47;;;5.80;;
55146;SDS011;41039;49.830;23.988;2022-08-01T12:47:10;6.13;;;4.68;;
55146;SDS011;41039;49.830;23.988;2022-08-01T12:49:36;10.88;;;6.28;;
55146;SDS011;41039;49.830;23.988;2022-08-01T12:52:02;6.75;;;5.60;;
55146;SDS011;41039;49.830;23.988;2022-08-01T12:54:27;6.75;;;5.38;;
55146;SDS011;41039;49.830;23.988;2022-08-01T12:56:53;8.40;;;6.10;;
55146;SDS011;41039;49.830;23.988;2022-08-01T12:59:19;6.50;;;5.00;;
55146;SDS011;41039;49.830;23.988;2022-08-01T13:01:44;8.73;;;5.82;;
55146;SDS011;41039;49.830;23.988;2022-08-01T13:04:10;6.80;;;5.10;;
55146;SDS011;41039;49.830;23.988;2022-08-01T13:06:35;6.03;;;4.47;;
55146;SDS011;41039;49.830;23.988;2022-08-01T13:09:09;11.05;;;4.97;;
55146;SDS011;41039;49.830;23.988;2022-08-01T13:11:36;6.93;;;4.65;;
55146;SDS011;41039;49.830;23.988;2022-08-01T13:14:01;7.57;;;5.20;;
55146;SDS011;41039;49.830;23.988;2022-08-01T13:16:27;8.18;;;5.43;;
55146;SDS011;41039;49.830;23.988;2022-08-01T13:18:53;7.22;;;6.25;;
55146;SDS011;41039;49.830;23.988;2022-08-01T13:21:25;7.47;;;6.22;;
55146;SDS011;41039;49.830;23.988;2022-08-01T13:24:07;6.47;;;5.47;;
55146;SDS011;41039;49.830;23.988;2022-08-01T13:29:04;8.65;;;6.45;;
55146;SDS011;41039;49.830;23.988;2022-08-01T13:31:37;8.48;;;7.10;;
55146;SDS011;41039;49.830;23.988;2022-08-01T13:34:02;8.38;;;7.10;;
55146;SDS011;41039;49.830;23.988;2022-08-01T13:36:28;8.38;;;6.45;;
55146;SDS011;41039;49.830;23.988;2022-08-01T13:38:57;7.88;;;6.68;;
55146;SDS011;41039;49.830;23.988;2022-08-01T13:41:41;8.73;;;7.88;;
55146;SDS011;41039;49.830;23.988;2022-08-01T13:44:06;10.52;;;7.47;;
55146;SDS011;41039;49.830;23.988;2022-08-01T13:46:34;8.88;;;7.45;;
55146;SDS011;41039;49.830;23.988;2022-08-01T13:48:59;7.68;;;6.70;;
55146;SDS011;41039;49.830;23.988;2022-08-01T13:51:24;8.63;;;7.70;;
55146;SDS011;41039;49.830;23.988;2022-08-01T13:53:50;10.37;;;7.93;;
55146;SDS011;41039;49.830;23.988;2022-08-01T13:56:15;10.90;;;8.07;;
55146;SDS011;41039;49.830;23.988;2022-08-01T13:58:42;12.20;;;10.52;;
55146;SDS011;41039;49.830;23.988;2022-08-01T14:01:07;10.32;;;6.78;;
55146;SDS011;41039;49.830;23.988;2022-08-01T14:03:32;9.60;;;7.00;;
55146;SDS011;41039;49.830;23.988;2022-08-01T14:05:58;10.30;;;7.53;;
55146;SDS011;41039;49.830;23.988;2022-08-01T14:08:23;8.88;;;6.78;;
55146;SDS011;41039;49.830;23.988;2022-08-01T14:10:48;8.77;;;5.53;;
55146;SDS011;41039;49.830;23.988;2022-08-01T14:13:13;5.53;;;4.97;;
55146;SDS011;41039;49.830;23.988;2022-08-01T14:15:39;7.82;;;5.93;;
55146;SDS011;41039;49.830;23.988;2022-08-01T14:18:04;6.45;;;5.43;;
55146;SDS011;41039;49.830;23.988;2022-08-01T14:20:30;8.55;;;6.78;;
55146;SDS011;41039;49.830;23.988;2022-08-01T14:22:55;7.93;;;6.28;;
55146;SDS011;41039;49.830;23.988;2022-08-01T14:25:21;7.97;;;6.90;;
55146;SDS011;41039;49.830;23.988;2022-08-01T14:27:46;7.78;;;5.95;;
55146;SDS011;41039;49.830;23.988;2022-08-01T14:30:12;7.05;;;5.65;;
55146;SDS011;41039;49.830;23.988;2022-08-01T14:32:38;6.90;;;6.20;;
55146;SDS011;41039;49.830;23.988;2022-08-01T14:35:03;9.00;;;6.20;;
55146;SDS011;41039;49.830;23.988;2022-08-01T14:37:29;10.13;;;6.05;;
55146;SDS011;41039;49.830;23.988;2022-08-01T14:39:55;7.80;;;5.90;;
55146;SDS011;41039;49.830;23.988;2022-08-01T14:42:20;7.30;;;5.85;;
55146;SDS011;41039;49.830;23.988;2022-08-01T14:44:45;9.75;;;6.22;;
55146;SDS011;41039;49.830;23.988;2022-08-01T14:47:10;11.60;;;7.17;;
55146;SDS011;41039;49.830;23.988;2022-08-01T14:49:35;6.97;;;6.27;;
55146;SDS011;41039;49.830;23.988;2022-08-01T14:52:01;8.40;;;6.57;;
55146;SDS011;41039;49.830;23.988;2022-08-01T14:54:26;6.63;;;6.03;;
55146;SDS011;41039;49.830;23.988;2022-08-01T14:56:51;9.17;;;7.20;;
55146;SDS011;41039;49.830;23.988;2022-08-01T14:59:18;8.10;;;6.50;;
55146;SDS011;41039;49.830;23.988;2022-08-01T15:01:43;8.55;;;5.90;;
55146;SDS011;41039;49.830;23.988;2022-08-01T15:04:08;7.67;;;6.60;;
55146;SDS011;41039;49.830;23.988;2022-08-01T15:06:33;8.70;;;6.75;;
55146;SDS011;41039;49.830;23.988;2022-08-01T15:08:59;8.40;;;6.23;;
55146;SDS011;41039;49.830;23.988;2022-08-01T15:11:24;7.87;;;6.40;;
55146;SDS011;41039;49.830;23.988;2022-08-01T15:13:49;7.37;;;6.57;;
55146;SDS011;41039;49.830;23.988;2022-08-01T15:16:34;7.43;;;6.13;;
55146;SDS011;41039;49.830;23.988;2022-08-01T15:18:59;8.35;;;6.10;;
55146;SDS011;41039;49.830;23.988;2022-08-01T15:21:25;7.33;;;6.40;;
55146;SDS011;41039;49.830;23.988;2022-08-01T15:23:50;8.10;;;6.50;;
55146;SDS011;41039;49.830;23.988;2022-08-01T15:26:15;7.18;;;6.40;;
55146;SDS011;41039;49.830;23.988;2022-08-01T15:28:40;7.20;;;5.97;;
55146;SDS011;41039;49.830;23.988;2022-08-01T15:31:05;9.77;;;7.20;;
55146;SDS011;41039;49.830;23.988;2022-08-01T15:33:31;9.93;;;6.37;;
55146;SDS011;41039;49.830;23.988;2022-08-01T15:35:56;7.70;;;6.80;;
55146;SDS011;41039;49.830;23.988;2022-08-01T15:38:21;13.90;;;7.27;;
55146;SDS011;41039;49.830;23.988;2022-08-01T15:40:46;8.10;;;6.23;;
55146;SDS011;41039;49.830;23.988;2022-08-01T15:43:12;7.72;;;6.40;;
55146;SDS011;41039;49.830;23.988;2022-08-01T15:45:38;9.95;;;6.35;;
55146;SDS011;41039;49.830;23.988;2022-08-01T15:48:03;9.48;;;7.22;;
55146;SDS011;41039;49.830;23.988;2022-08-01T15:50:28;8.25;;;6.03;;
55146;SDS011;41039;49.830;23.988;2022-08-01T15:52:53;8.02;;;6.88;;
55146;SDS011;41039;49.830;23.988;2022-08-01T15:55:19;8.30;;;6.53;;
55146;SDS011;41039;49.830;23.988;2022-08-01T15:57:44;8.17;;;6.60;;
55146;SDS011;41039;49.830;23.988;2022-08-01T16:00:09;8.57;;;6.20;;
55146;SDS011;41039;49.830;23.988;2022-08-01T16:02:35;10.45;;;6.40;;
55146;SDS011;41039;49.830;23.988;2022-08-01T16:05:00;8.77;;;7.15;;
55146;SDS011;41039;49.830;23.988;2022-08-01T16:07:25;7.60;;;6.53;;
55146;SDS011;41039;49.830;23.988;2022-08-01T16:09:51;6.50;;;5.63;;
55146;SDS011;41039;49.830;23.988;2022-08-01T16:12:16;6.70;;;5.93;;
55146;SDS011;41039;49.830;23.988;2022-08-01T16:14:41;8.57;;;6.37;;
55146;SDS011;41039;49.830;23.988;2022-08-01T16:17:06;6.93;;;6.00;;
55146;SDS011;41039;49.830;23.988;2022-08-01T16:19:32;6.00;;;5.40;;
55146;SDS011;41039;49.830;23.988;2022-08-01T16:21:57;8.23;;;6.22;;
55146;SDS011;41039;49.830;23.988;2022-08-01T16:24:22;11.02;;;6.80;;
55146;SDS011;41039;49.830;23.988;2022-08-01T16:26:47;6.40;;;5.68;;
55146;SDS011;41039;49.830;23.988;2022-08-01T16:29:13;8.33;;;5.73;;
55146;SDS011;41039;49.830;23.988;2022-08-01T16:31:38;6.97;;;6.25;;
55146;SDS011;41039;49.830;23.988;2022-08-01T16:34:03;7.07;;;5.67;;
55146;SDS011;41039;49.830;23.988;2022-08-01T16:36:28;7.83;;;6.50;;
55146;SDS011;41039;49.830;23.988;2022-08-01T16:38:53;7.30;;;6.50;;
55146;SDS011;41039;49.830;23.988;2022-08-01T16:41:19;6.80;;;6.10;;
55146;SDS011;41039;49.830;23.988;2022-08-01T16:43:44;9.90;;;6.83;;
55146;SDS011;41039;49.830;23.988;2022-08-01T16:46:09;8.00;;;6.70;;
55146;SDS011;41039;49.830;23.988;2022-08-01T16:48:35;7.40;;;6.60;;
55146;SDS011;41039;49.830;23.988;2022-08-01T16:51:00;8.85;;;6.45;;
55146;SDS011;41039;49.830;23.988;2022-08-01T16:53:25;7.65;;;6.82;;
55146;SDS011;41039;49.830;23.988;2022-08-01T16:55:50;9.57;;;7.05;;
55146;SDS011;41039;49.830;23.988;2022-08-01T16:58:16;8.57;;;7.23;;
55146;SDS011;41039;49.830;23.988;2022-08-01T17:00:42;6.32;;;5.72;;
55146;SDS011;41039;49.830;23.988;2022-08-01T17:03:11;7.93;;;6.45;;
55146;SDS011;41039;49.830;23.988;2022-08-01T17:05:37;8.30;;;6.03;;
55146;SDS011;41039;49.830;23.988;2022-08-01T17:08:03;8.30;;;6.53;;
55146;SDS011;41039;49.830;23.988;2022-08-01T17:10:28;7.85;;;7.03;;
55146;SDS011;41039;49.830;23.988;2022-08-01T17:12:53;9.50;;;7.13;;
55146;SDS011;41039;49.830;23.988;2022-08-01T17:15:19;7.50;;;6.73;;
55146;SDS011;41039;49.830;23.988;2022-08-01T17:17:44;8.43;;;6.77;;
55146;SDS011;41039;49.830;23.988;2022-08-01T17:20:09;11.20;;;7.57;;
55146;SDS011;41039;49.830;23.988;2022-08-01T17:22:35;12.15;;;7.78;;
55146;SDS011;41039;49.830;23.988;2022-08-01T17:25:00;9.57;;;8.57;;
55146;SDS011;41039;49.830;23.988;2022-08-01T17:27:25;12.23;;;7.85;;
55146;SDS011;41039;49.830;23.988;2022-08-01T17:29:50;13.10;;;8.20;;
55146;SDS011;41039;49.830;23.988;2022-08-01T17:32:16;12.60;;;9.32;;
55146;SDS011;41039;49.830;23.988;2022-08-01T17:34:41;14.32;;;8.88;;
55146;SDS011;41039;49.830;23.988;2022-08-01T17:37:06;15.00;;;9.35;;
55146;SDS011;41039;49.830;23.988;2022-08-01T17:39:32;12.73;;;9.00;;
55146;SDS011;41039;49.830;23.988;2022-08-01T17:41:57;9.93;;;7.90;;
55146;SDS011;41039;49.830;23.988;2022-08-01T17:44:22;14.23;;;8.25;;
55146;SDS011;41039;49.830;23.988;2022-08-01T17:46:49;10.52;;;8.57;;
55146;SDS011;41039;49.830;23.988;2022-08-01T17:49:15;12.52;;;8.80;;
55146;SDS011;41039;49.830;23.988;2022-08-01T17:51:40;11.60;;;8.73;;
55146;SDS011;41039;49.830;23.988;2022-08-01T17:54:05;13.63;;;9.10;;
55146;SDS011;41039;49.830;23.988;2022-08-01T17:56:30;13.60;;;9.40;;
55146;SDS011;41039;49.830;23.988;2022-08-01T17:58:56;11.23;;;8.73;;
55146;SDS011;41039;49.830;23.988;2022-08-01T18:01:21;13.65;;;8.95;;
55146;SDS011;41039;49.830;23.988;2022-08-01T18:03:49;16.60;;;8.93;;
55146;SDS011;41039;49.830;23.988;2022-08-01T18:06:14;12.82;;;8.75;;
55146;SDS011;41039;49.830;23.988;2022-08-01T18:08:44;10.90;;;8.90;;
55146;SDS011;41039;49.830;23.988;2022-08-01T18:11:10;11.05;;;8.85;;
55146;SDS011;41039;49.830;23.988;2022-08-01T18:13:36;17.58;;;9.55;;
55146;SDS011;41039;49.830;23.988;2022-08-01T18:16:02;11.73;;;9.07;;
55146;SDS011;41039;49.830;23.988;2022-08-01T18:18:30;11.60;;;8.90;;
55146;SDS011;41039;49.830;23.988;2022-08-01T18:20:55;15.93;;;9.07;;
55146;SDS011;41039;49.830;23.988;2022-08-01T18:23:20;15.90;;;9.35;;
55146;SDS011;41039;49.830;23.988;2022-08-01T18:25:46;15.25;;;9.02;;
55146;SDS011;41039;49.830;23.988;2022-08-01T18:28:11;13.18;;;9.07;;
55146;SDS011;41039;49.830;23.988;2022-08-01T18:30:36;12.43;;;9.95;;
55146;SDS011;41039;49.830;23.988;2022-08-01T18:33:01;11.70;;;8.93;;
55146;SDS011;41039;49.830;23.988;2022-08-01T18:35:27;12.15;;;8.95;;
55146;SDS011;41039;49.830;23.988;2022-08-01T18:37:52;13.52;;;9.35;;
55146;SDS011;41039;49.830;23.988;2022-08-01T18:40:18;13.02;;;9.48;;
55146;SDS011;41039;49.830;23.988;2022-08-01T18:42:43;11.20;;;8.52;;
55146;SDS011;41039;49.830;23.988;2022-08-01T18:45:08;15.80;;;10.07;;
55146;SDS011;41039;49.830;23.988;2022-08-01T18:47:34;15.32;;;10.23;;
55146;SDS011;41039;49.830;23.988;2022-08-01T18:49:59;11.32;;;9.50;;
55146;SDS011;41039;49.830;23.988;2022-08-01T18:52:25;12.90;;;9.55;;
55146;SDS011;41039;49.830;23.988;2022-08-01T18:54:53;11.40;;;9.60;;
55146;SDS011;41039;49.830;23.988;2022-08-01T18:57:18;12.23;;;9.88;;
55146;SDS011;41039;49.830;23.988;2022-08-01T18:59:43;13.43;;;10.10;;
55146;SDS011;41039;49.830;23.988;2022-08-01T19:02:09;11.82;;;9.63;;
55146;SDS011;41039;49.830;23.988;2022-08-01T19:04:34;11.38;;;9.60;;
55146;SDS011;41039;49.830;23.988;2022-08-01T19:07:00;13.35;;;9.95;;
55146;SDS011;41039;49.830;23.988;2022-08-01T19:09:25;12.27;;;9.65;;
55146;SDS011;41039;49.830;23.988;2022-08-01T19:11:50;13.20;;;10.63;;
55146;SDS011;41039;49.830;23.988;2022-08-01T19:14:16;13.47;;;10.00;;
55146;SDS011;41039;49.830;23.988;2022-08-01T19:16:41;14.80;;;10.52;;
55146;SDS011;41039;49.830;23.988;2022-08-01T19:19:06;15.10;;;10.90;;
55146;SDS011;41039;49.830;23.988;2022-08-01T19:21:33;12.55;;;10.35;;
55146;SDS011;41039;49.830;23.988;2022-08-01T19:23:58;15.07;;;10.98;;
55146;SDS011;41039;49.830;23.988;2022-08-01T19:29:18;14.57;;;10.70;;
55146;SDS011;41039;49.830;23.988;2022-08-01T19:31:44;14.45;;;10.98;;
55146;SDS011;41039;49.830;23.988;2022-08-01T19:34:10;13.15;;;10.20;;
55146;SDS011;41039;49.830;23.988;2022-08-01T19:36:36;15.10;;;10.88;;
55146;SDS011;41039;49.830;23.988;2022-08-01T19:39:02;14.68;;;11.05;;
55146;SDS011;41039;49.830;23.988;2022-08-01T19:41:27;14.65;;;10.50;;
55146;SDS011;41039;49.830;23.988;2022-08-01T19:43:53;14.27;;;10.98;;
55146;SDS011;41039;49.830;23.988;2022-08-01T19:46:18;14.05;;;10.88;;
55146;SDS011;41039;49.830;23.988;2022-08-01T19:48:44;15.48;;;11.00;;
55146;SDS011;41039;49.830;23.988;2022-08-01T19:51:11;14.02;;;10.80;;
55146;SDS011;41039;49.830;23.988;2022-08-01T19:53:40;14.10;;;10.93;;
55146;SDS011;41039;49.830;23.988;2022-08-01T19:56:06;13.70;;;10.73;;
55146;SDS011;41039;49.830;23.988;2022-08-01T19:58:38;11.25;;;9.60;;
55146;SDS011;41039;49.830;23.988;2022-08-01T20:01:04;13.15;;;10.80;;
55146;SDS011;41039;49.830;23.988;2022-08-01T20:03:31;13.02;;;9.85;;
55146;SDS011;41039;49.830;23.988;2022-08-01T20:05:59;12.93;;;10.45;;
55146;SDS011;41039;49.830;23.988;2022-08-01T20:08:25;14.43;;;10.65;;
55146;SDS011;41039;49.830;23.988;2022-08-01T20:10:50;12.73;;;10.05;;
55146;SDS011;41039;49.830;23.988;2022-08-01T20:13:16;14.15;;;9.95;;
55146;SDS011;41039;49.830;23.988;2022-08-01T20:15:42;12.73;;;9.80;;
55146;SDS011;41039;49.830;23.988;2022-08-01T20:18:08;13.77;;;9.77;;
55146;SDS011;41039;49.830;23.988;2022-08-01T20:20:33;11.82;;;9.35;;